sensor_id;sensor_type;location;lat;lon;timestamp;temperature;humidity
35645;DHT22;21764;52.042;6.830;2023-07-22T00:03:15;14.70;98.00
35645;DHT22;21764;52.042;6.830;2023-07-22T00:08:16;14.80;98.10
35645;DHT22;21764;52.042;6.830;2023-07-22T00:13:17;14.80;98.10
35645;DHT22;21764;52.042;6.830;2023-07-22T00:18:17;14.70;98.10
35645;DHT22;21764;52.042;6.830;2023-07-22T00:23:18;14.60;98.00
35645;DHT22;21764;52.042;6.830;2023-07-22T00:28:20;14.60;98.10
35645;DHT22;21764;52.042;6.830;2023-07-22T00:33:20;14.60;98.30
35645;DHT22;21764;52.042;6.830;2023-07-22T00:38:21;14.50;98.50
35645;DHT22;21764;52.042;6.830;2023-07-22T00:43:22;14.30;98.80
35645;DHT22;21764;52.042;6.830;2023-07-22T00:48:23;14.20;98.90
35645;DHT22;21764;52.042;6.830;2023-07-22T00:53:24;14.20;99.20
35645;DHT22;21764;52.042;6.830;2023-07-22T00:58:25;14.10;99.40
35645;DHT22;21764;52.042;6.830;2023-07-22T01:03:26;14.10;99.60
35645;DHT22;21764;52.042;6.830;2023-07-22T01:08:26;14.00;99.90
35645;DHT22;21764;52.042;6.830;2023-07-22T01:13:27;13.90;99.90
35645;DHT22;21764;52.042;6.830;2023-07-22T01:18:28;13.90;99.90
35645;DHT22;21764;52.042;6.830;2023-07-22T01:23:29;13.80;99.90
35645;DHT22;21764;52.042;6.830;2023-07-22T01:28:30;13.80;99.90
35645;DHT22;21764;52.042;6.830;2023-07-22T01:33:31;13.80;99.90
35645;DHT22;21764;52.042;6.830;2023-07-22T01:38:32;13.90;99.90
35645;DHT22;21764;52.042;6.830;2023-07-22T01:43:32;14.00;99.90
35645;DHT22;21764;52.042;6.830;2023-07-22T01:48:33;14.00;99.90
35645;DHT22;21764;52.042;6.830;2023-07-22T01:53:34;14.00;99.90
35645;DHT22;21764;52.042;6.830;2023-07-22T01:58:34;14.10;99.90
35645;DHT22;21764;52.042;6.830;2023-07-22T02:03:35;14.30;99.90
35645;DHT22;21764;52.042;6.830;2023-07-22T02:08:36;14.40;99.90
35645;DHT22;21764;52.042;6.830;2023-07-22T02:13:37;14.40;99.90
35645;DHT22;21764;52.042;6.830;2023-07-22T02:18:37;14.50;99.90
35645;DHT22;21764;52.042;6.830;2023-07-22T02:23:38;14.40;99.90
35645;DHT22;21764;52.042;6.830;2023-07-22T02:28:39;14.40;99.90
35645;DHT22;21764;52.042;6.830;2023-07-22T02:33:39;14.30;99.90
35645;DHT22;21764;52.042;6.830;2023-07-22T02:38:41;14.30;99.90
35645;DHT22;21764;52.042;6.830;2023-07-22T02:43:41;14.30;99.90
35645;DHT22;21764;52.042;6.830;2023-07-22T02:48:42;14.30;99.90
35645;DHT22;21764;52.042;6.830;2023-07-22T02:53:43;14.30;99.90
35645;DHT22;21764;52.042;6.830;2023-07-22T02:58:45;14.30;99.90
35645;DHT22;21764;52.042;6.830;2023-07-22T03:03:46;14.30;99.90
35645;DHT22;21764;52.042;6.830;2023-07-22T03:08:46;14.30;99.90
35645;DHT22;21764;52.042;6.830;2023-07-22T03:13:48;14.30;99.90
35645;DHT22;21764;52.042;6.830;2023-07-22T03:18:49;14.20;99.90
35645;DHT22;21764;52.042;6.830;2023-07-22T03:23:52;14.00;99.90
35645;DHT22;21764;52.042;6.830;2023-07-22T03:28:53;13.90;99.90
35645;DHT22;21764;52.042;6.830;2023-07-22T03:33:54;13.90;99.90
35645;DHT22;21764;52.042;6.830;2023-07-22T03:38:54;13.80;99.90
35645;DHT22;21764;52.042;6.830;2023-07-22T03:43:55;13.80;99.90
35645;DHT22;21764;52.042;6.830;2023-07-22T03:48:56;13.70;99.90
35645;DHT22;21764;52.042;6.830;2023-07-22T03:53:57;13.70;99.90
35645;DHT22;21764;52.042;6.830;2023-07-22T03:58:58;13.70;99.90
35645;DHT22;21764;52.042;6.830;2023-07-22T04:03:58;13.70;99.90
35645;DHT22;21764;52.042;6.830;2023-07-22T04:08:59;13.80;99.90
35645;DHT22;21764;52.042;6.830;2023-07-22T04:14:00;13.80;99.90
35645;DHT22;21764;52.042;6.830;2023-07-22T04:19:01;14.00;99.90
35645;DHT22;21764;52.042;6.830;2023-07-22T04:24:02;14.20;99.90
35645;DHT22;21764;52.042;6.830;2023-07-22T04:29:03;14.40;99.90
35645;DHT22;21764;52.042;6.830;2023-07-22T04:34:03;14.60;99.90
35645;DHT22;21764;52.042;6.830;2023-07-22T04:39:05;14.70;99.90
35645;DHT22;21764;52.042;6.830;2023-07-22T04:44:07;14.80;99.90
35645;DHT22;21764;52.042;6.830;2023-07-22T04:49:08;15.00;99.90
35645;DHT22;21764;52.042;6.830;2023-07-22T04:54:09;15.10;99.90
35645;DHT22;21764;52.042;6.830;2023-07-22T04:59:09;15.00;99.90
35645;DHT22;21764;52.042;6.830;2023-07-22T05:04:10;14.90;99.90
35645;DHT22;21764;52.042;6.830;2023-07-22T05:09:11;15.00;99.90
35645;DHT22;21764;52.042;6.830;2023-07-22T05:14:12;15.30;99.90
35645;DHT22;21764;52.042;6.830;2023-07-22T05:19:13;16.00;99.90
35645;DHT22;21764;52.042;6.830;2023-07-22T05:24:14;17.50;97.00
35645;DHT22;21764;52.042;6.830;2023-07-22T05:29:14;17.80;95.30
35645;DHT22;21764;52.042;6.830;2023-07-22T05:34:15;17.90;94.50
35645;DHT22;21764;52.042;6.830;2023-07-22T05:39:15;17.60;95.20
35645;DHT22;21764;52.042;6.830;2023-07-22T05:44:18;18.90;93.30
35645;DHT22;21764;52.042;6.830;2023-07-22T05:49:19;20.40;88.70
35645;DHT22;21764;52.042;6.830;2023-07-22T05:54:20;21.30;84.40
35645;DHT22;21764;52.042;6.830;2023-07-22T05:59:21;21.60;82.10
35645;DHT22;21764;52.042;6.830;2023-07-22T06:04:22;20.30;86.10
35645;DHT22;21764;52.042;6.830;2023-07-22T06:09:22;19.30;89.90
35645;DHT22;21764;52.042;6.830;2023-07-22T06:14:23;18.70;90.80
35645;DHT22;21764;52.042;6.830;2023-07-22T06:19:24;18.10;92.20
35645;DHT22;21764;52.042;6.830;2023-07-22T06:24:25;18.70;91.90
35645;DHT22;21764;52.042;6.830;2023-07-22T06:29:26;20.80;87.90
35645;DHT22;21764;52.042;6.830;2023-07-22T06:34:26;26.40;71.40
35645;DHT22;21764;52.042;6.830;2023-07-22T06:39:28;29.60;61.60
35645;DHT22;21764;52.042;6.830;2023-07-22T06:44:28;31.00;56.40
35645;DHT22;21764;52.042;6.830;2023-07-22T06:49:29;32.30;54.20
35645;DHT22;21764;52.042;6.830;2023-07-22T06:54:30;31.00;53.00
35645;DHT22;21764;52.042;6.830;2023-07-22T06:59:31;33.30;52.30
35645;DHT22;21764;52.042;6.830;2023-07-22T07:04:31;36.20;48.00
35645;DHT22;21764;52.042;6.830;2023-07-22T07:09:32;36.70;45.40
35645;DHT22;21764;52.042;6.830;2023-07-22T07:14:33;32.30;49.30
35645;DHT22;21764;52.042;6.830;2023-07-22T07:19:34;28.60;55.50
35645;DHT22;21764;52.042;6.830;2023-07-22T07:24:35;30.00;56.10
35645;DHT22;21764;52.042;6.830;2023-07-22T07:29:35;29.00;54.10
35645;DHT22;21764;52.042;6.830;2023-07-22T07:34:37;28.90;55.70
35645;DHT22;21764;52.042;6.830;2023-07-22T07:39:37;29.00;55.70
35645;DHT22;21764;52.042;6.830;2023-07-22T07:44:38;30.10;55.70
35645;DHT22;21764;52.042;6.830;2023-07-22T07:49:39;36.60;48.00
35645;DHT22;21764;52.042;6.830;2023-07-22T07:54:40;40.80;42.60
35645;DHT22;21764;52.042;6.830;2023-07-22T07:59:41;38.30;42.40
35645;DHT22;21764;52.042;6.830;2023-07-22T08:04:42;38.60;42.00
35645;DHT22;21764;52.042;6.830;2023-07-22T08:09:42;36.80;43.50
35645;DHT22;21764;52.042;6.830;2023-07-22T08:14:43;38.30;43.80
35645;DHT22;21764;52.042;6.830;2023-07-22T08:19:44;40.00;40.90
35645;DHT22;21764;52.042;6.830;2023-07-22T08:24:44;39.30;40.30
35645;DHT22;21764;52.042;6.830;2023-07-22T08:29:45;38.50;41.70
35645;DHT22;21764;52.042;6.830;2023-07-22T08:34:45;40.30;40.60
35645;DHT22;21764;52.042;6.830;2023-07-22T08:39:46;38.30;41.20
35645;DHT22;21764;52.042;6.830;2023-07-22T08:44:48;33.40;46.90
35645;DHT22;21764;52.042;6.830;2023-07-22T08:49:51;33.20;49.20
35645;DHT22;21764;52.042;6.830;2023-07-22T08:54:53;33.30;46.80
35645;DHT22;21764;52.042;6.830;2023-07-22T08:59:56;32.40;46.20
35645;DHT22;21764;52.042;6.830;2023-07-22T09:04:57;29.80;50.90
35645;DHT22;21764;52.042;6.830;2023-07-22T09:09:59;28.00;55.10
35645;DHT22;21764;52.042;6.830;2023-07-22T09:15:01;26.30;57.10
35645;DHT22;21764;52.042;6.830;2023-07-22T09:20:02;26.00;57.90
35645;DHT22;21764;52.042;6.830;2023-07-22T09:25:25;27.20;56.40
35645;DHT22;21764;52.042;6.830;2023-07-22T09:30:28;27.70;55.70
35645;DHT22;21764;52.042;6.830;2023-07-22T09:35:44;27.60;56.20
35645;DHT22;21764;52.042;6.830;2023-07-22T09:40:45;26.00;57.90
35645;DHT22;21764;52.042;6.830;2023-07-22T09:45:47;25.30;59.40
35645;DHT22;21764;52.042;6.830;2023-07-22T09:50:58;25.20;60.60
35645;DHT22;21764;52.042;6.830;2023-07-22T09:56:03;25.40;61.30
35645;DHT22;21764;52.042;6.830;2023-07-22T10:01:05;25.40;58.90
35645;DHT22;21764;52.042;6.830;2023-07-22T10:06:08;26.20;59.40
35645;DHT22;21764;52.042;6.830;2023-07-22T10:11:10;26.10;58.80
35645;DHT22;21764;52.042;6.830;2023-07-22T10:16:12;25.70;59.20
35645;DHT22;21764;52.042;6.830;2023-07-22T10:21:13;26.10;58.20
35645;DHT22;21764;52.042;6.830;2023-07-22T10:26:18;25.60;59.50
35645;DHT22;21764;52.042;6.830;2023-07-22T10:31:19;25.70;59.40
35645;DHT22;21764;52.042;6.830;2023-07-22T10:36:20;25.20;60.10
35645;DHT22;21764;52.042;6.830;2023-07-22T10:41:21;24.90;60.50
35645;DHT22;21764;52.042;6.830;2023-07-22T10:46:38;24.70;61.40
35645;DHT22;21764;52.042;6.830;2023-07-22T10:51:41;24.40;63.00
35645;DHT22;21764;52.042;6.830;2023-07-22T10:56:45;24.70;62.40
35645;DHT22;21764;52.042;6.830;2023-07-22T11:01:45;24.80;61.60
35645;DHT22;21764;52.042;6.830;2023-07-22T11:11:48;25.30;59.50
35645;DHT22;21764;52.042;6.830;2023-07-22T11:16:49;25.40;59.00
35645;DHT22;21764;52.042;6.830;2023-07-22T11:21:52;25.40;58.60
35645;DHT22;21764;52.042;6.830;2023-07-22T11:26:53;25.60;58.50
35645;DHT22;21764;52.042;6.830;2023-07-22T11:31:54;25.20;59.30
35645;DHT22;21764;52.042;6.830;2023-07-22T11:36:56;25.70;59.00
35645;DHT22;21764;52.042;6.830;2023-07-22T11:42:00;26.00;58.80
35645;DHT22;21764;52.042;6.830;2023-07-22T11:47:06;26.20;58.20
35645;DHT22;21764;52.042;6.830;2023-07-22T11:52:17;25.30;59.50
35645;DHT22;21764;52.042;6.830;2023-07-22T12:02:23;24.70;61.50
35645;DHT22;21764;52.042;6.830;2023-07-22T12:07:29;25.20;59.60
35645;DHT22;21764;52.042;6.830;2023-07-22T12:12:43;26.10;59.50
35645;DHT22;21764;52.042;6.830;2023-07-22T12:17:52;26.90;57.80
35645;DHT22;21764;52.042;6.830;2023-07-22T12:22:54;26.00;58.30
35645;DHT22;21764;52.042;6.830;2023-07-22T12:27:54;24.30;61.30
35645;DHT22;21764;52.042;6.830;2023-07-22T12:32:55;23.10;69.10
35645;DHT22;21764;52.042;6.830;2023-07-22T12:37:56;22.60;70.70
35645;DHT22;21764;52.042;6.830;2023-07-22T12:42:56;23.50;69.80
35645;DHT22;21764;52.042;6.830;2023-07-22T12:47:57;24.60;66.20
35645;DHT22;21764;52.042;6.830;2023-07-22T12:52:58;25.10;63.90
35645;DHT22;21764;52.042;6.830;2023-07-22T12:57:59;25.00;63.30
35645;DHT22;21764;52.042;6.830;2023-07-22T13:03:00;25.30;62.80
35645;DHT22;21764;52.042;6.830;2023-07-22T13:08:00;25.50;63.10
35645;DHT22;21764;52.042;6.830;2023-07-22T13:13:01;25.10;63.90
35645;DHT22;21764;52.042;6.830;2023-07-22T13:18:02;25.60;62.70
35645;DHT22;21764;52.042;6.830;2023-07-22T13:23:03;25.90;60.30
35645;DHT22;21764;52.042;6.830;2023-07-22T13:28:03;25.30;59.90
35645;DHT22;21764;52.042;6.830;2023-07-22T13:33:04;25.60;58.60
35645;DHT22;21764;52.042;6.830;2023-07-22T13:38:05;25.60;59.00
35645;DHT22;21764;52.042;6.830;2023-07-22T13:43:05;25.30;59.30
35645;DHT22;21764;52.042;6.830;2023-07-22T13:48:06;25.10;60.20
35645;DHT22;21764;52.042;6.830;2023-07-22T13:53:07;24.70;62.00
35645;DHT22;21764;52.042;6.830;2023-07-22T13:58:07;25.30;59.10
35645;DHT22;21764;52.042;6.830;2023-07-22T14:03:08;25.30;60.20
35645;DHT22;21764;52.042;6.830;2023-07-22T14:08:09;25.10;59.40
35645;DHT22;21764;52.042;6.830;2023-07-22T14:13:09;24.70;58.20
35645;DHT22;21764;52.042;6.830;2023-07-22T14:18:10;24.60;58.90
35645;DHT22;21764;52.042;6.830;2023-07-22T14:23:11;24.50;59.10
35645;DHT22;21764;52.042;6.830;2023-07-22T14:28:11;24.30;60.00
35645;DHT22;21764;52.042;6.830;2023-07-22T14:33:12;24.30;58.80
35645;DHT22;21764;52.042;6.830;2023-07-22T14:38:14;23.90;59.00
35645;DHT22;21764;52.042;6.830;2023-07-22T14:43:15;24.10;60.00
35645;DHT22;21764;52.042;6.830;2023-07-22T14:48:16;24.60;59.10
35645;DHT22;21764;52.042;6.830;2023-07-22T14:53:16;25.10;59.00
35645;DHT22;21764;52.042;6.830;2023-07-22T14:58:18;25.20;59.40
35645;DHT22;21764;52.042;6.830;2023-07-22T15:03:19;25.40;59.40
35645;DHT22;21764;52.042;6.830;2023-07-22T15:08:19;25.50;58.80
35645;DHT22;21764;52.042;6.830;2023-07-22T15:13:20;25.30;59.90
35645;DHT22;21764;52.042;6.830;2023-07-22T15:18:21;25.30;60.40
35645;DHT22;21764;52.042;6.830;2023-07-22T15:23:22;25.20;60.30
35645;DHT22;21764;52.042;6.830;2023-07-22T15:28:22;25.10;59.30
35645;DHT22;21764;52.042;6.830;2023-07-22T15:33:23;25.20;59.10
35645;DHT22;21764;52.042;6.830;2023-07-22T15:38:25;25.20;57.40
35645;DHT22;21764;52.042;6.830;2023-07-22T15:43:27;25.00;57.10
35645;DHT22;21764;52.042;6.830;2023-07-22T15:48:28;24.80;58.20
35645;DHT22;21764;52.042;6.830;2023-07-22T15:53:28;24.90;58.00
35645;DHT22;21764;52.042;6.830;2023-07-22T15:58:29;24.70;63.00
35645;DHT22;21764;52.042;6.830;2023-07-22T16:03:30;24.50;63.90
35645;DHT22;21764;52.042;6.830;2023-07-22T16:08:30;24.00;65.70
35645;DHT22;21764;52.042;6.830;2023-07-22T16:13:32;23.30;67.00
35645;DHT22;21764;52.042;6.830;2023-07-22T16:18:33;22.70;69.00
35645;DHT22;21764;52.042;6.830;2023-07-22T16:23:35;22.70;69.30
35645;DHT22;21764;52.042;6.830;2023-07-22T16:28:36;22.60;69.40
35645;DHT22;21764;52.042;6.830;2023-07-22T16:33:36;22.40;70.60
35645;DHT22;21764;52.042;6.830;2023-07-22T16:38:37;22.20;71.50
35645;DHT22;21764;52.042;6.830;2023-07-22T16:43:38;22.50;72.00
35645;DHT22;21764;52.042;6.830;2023-07-22T16:48:38;22.80;70.50
35645;DHT22;21764;52.042;6.830;2023-07-22T16:53:39;22.70;70.60
35645;DHT22;21764;52.042;6.830;2023-07-22T16:58:40;22.30;70.60
35645;DHT22;21764;52.042;6.830;2023-07-22T17:03:40;22.00;73.70
35645;DHT22;21764;52.042;6.830;2023-07-22T17:08:41;21.70;75.80
35645;DHT22;21764;52.042;6.830;2023-07-22T17:13:43;21.40;77.10
35645;DHT22;21764;52.042;6.830;2023-07-22T17:18:44;21.10;78.70
35645;DHT22;21764;52.042;6.830;2023-07-22T17:23:44;20.90;80.00
35645;DHT22;21764;52.042;6.830;2023-07-22T17:28:46;20.80;80.70
35645;DHT22;21764;52.042;6.830;2023-07-22T17:33:47;20.70;81.60
35645;DHT22;21764;52.042;6.830;2023-07-22T17:38:48;20.70;81.90
35645;DHT22;21764;52.042;6.830;2023-07-22T17:43:48;20.60;82.80
35645;DHT22;21764;52.042;6.830;2023-07-22T17:48:49;20.70;82.70
35645;DHT22;21764;52.042;6.830;2023-07-22T17:53:50;20.70;83.30
35645;DHT22;21764;52.042;6.830;2023-07-22T17:58:50;20.60;83.10
35645;DHT22;21764;52.042;6.830;2023-07-22T18:03:51;20.60;84.00
35645;DHT22;21764;52.042;6.830;2023-07-22T18:08:52;20.60;83.00
35645;DHT22;21764;52.042;6.830;2023-07-22T18:13:53;20.50;83.10
35645;DHT22;21764;52.042;6.830;2023-07-22T18:18:54;20.40;83.20
35645;DHT22;21764;52.042;6.830;2023-07-22T18:23:55;20.30;83.50
35645;DHT22;21764;52.042;6.830;2023-07-22T18:28:57;20.20;83.40
35645;DHT22;21764;52.042;6.830;2023-07-22T18:33:57;20.10;83.90
35645;DHT22;21764;52.042;6.830;2023-07-22T18:38:58;20.10;83.90
35645;DHT22;21764;52.042;6.830;2023-07-22T18:43:59;20.00;85.50
35645;DHT22;21764;52.042;6.830;2023-07-22T18:48:59;19.90;86.80
35645;DHT22;21764;52.042;6.830;2023-07-22T18:54:01;19.90;87.90
35645;DHT22;21764;52.042;6.830;2023-07-22T18:59:01;19.80;87.60
35645;DHT22;21764;52.042;6.830;2023-07-22T19:04:02;19.70;87.80
35645;DHT22;21764;52.042;6.830;2023-07-22T19:09:03;19.50;90.00
35645;DHT22;21764;52.042;6.830;2023-07-22T19:14:03;19.30;90.40
35645;DHT22;21764;52.042;6.830;2023-07-22T19:19:04;19.20;90.50
35645;DHT22;21764;52.042;6.830;2023-07-22T19:24:05;19.10;90.60
35645;DHT22;21764;52.042;6.830;2023-07-22T19:29:06;19.10;90.70
35645;DHT22;21764;52.042;6.830;2023-07-22T19:34:07;19.10;90.90
35645;DHT22;21764;52.042;6.830;2023-07-22T19:39:08;19.00;91.30
35645;DHT22;21764;52.042;6.830;2023-07-22T19:44:09;19.00;91.10
35645;DHT22;21764;52.042;6.830;2023-07-22T19:49:10;19.00;91.80
35645;DHT22;21764;52.042;6.830;2023-07-22T19:54:10;19.00;91.30
35645;DHT22;21764;52.042;6.830;2023-07-22T19:59:11;18.90;91.00
35645;DHT22;21764;52.042;6.830;2023-07-22T20:04:12;18.70;91.90
35645;DHT22;21764;52.042;6.830;2023-07-22T20:09:13;18.70;92.10
35645;DHT22;21764;52.042;6.830;2023-07-22T20:14:13;18.70;92.20
35645;DHT22;21764;52.042;6.830;2023-07-22T20:19:14;18.50;91.80
35645;DHT22;21764;52.042;6.830;2023-07-22T20:24:15;18.40;92.50
35645;DHT22;21764;52.042;6.830;2023-07-22T20:29:15;18.30;92.50
35645;DHT22;21764;52.042;6.830;2023-07-22T20:34:16;18.30;92.90
35645;DHT22;21764;52.042;6.830;2023-07-22T20:39:16;18.20;93.40
35645;DHT22;21764;52.042;6.830;2023-07-22T20:44:20;18.20;94.30
35645;DHT22;21764;52.042;6.830;2023-07-22T20:49:21;18.10;94.40
35645;DHT22;21764;52.042;6.830;2023-07-22T20:54:21;18.10;94.90
35645;DHT22;21764;52.042;6.830;2023-07-22T20:59:22;18.00;94.20
35645;DHT22;21764;52.042;6.830;2023-07-22T21:04:23;17.90;94.70
35645;DHT22;21764;52.042;6.830;2023-07-22T21:09:24;17.80;94.50
35645;DHT22;21764;52.042;6.830;2023-07-22T21:14:25;17.70;95.40
35645;DHT22;21764;52.042;6.830;2023-07-22T21:19:26;17.60;95.90
35645;DHT22;21764;52.042;6.830;2023-07-22T21:24:26;17.60;96.70
35645;DHT22;21764;52.042;6.830;2023-07-22T21:29:27;17.50;97.10
35645;DHT22;21764;52.042;6.830;2023-07-22T21:34:28;17.40;97.90
35645;DHT22;21764;52.042;6.830;2023-07-22T21:39:28;17.30;97.70
35645;DHT22;21764;52.042;6.830;2023-07-22T21:44:31;17.20;97.80
35645;DHT22;21764;52.042;6.830;2023-07-22T21:49:32;17.20;98.90
35645;DHT22;21764;52.042;6.830;2023-07-22T21:54:33;17.10;99.10
35645;DHT22;21764;52.042;6.830;2023-07-22T21:59:34;17.00;99.80
35645;DHT22;21764;52.042;6.830;2023-07-22T22:04:35;16.90;99.90
35645;DHT22;21764;52.042;6.830;2023-07-22T22:09:35;16.90;99.90
35645;DHT22;21764;52.042;6.830;2023-07-22T22:14:36;16.80;99.90
35645;DHT22;21764;52.042;6.830;2023-07-22T22:19:37;16.70;99.90
35645;DHT22;21764;52.042;6.830;2023-07-22T22:24:37;16.70;99.90
35645;DHT22;21764;52.042;6.830;2023-07-22T22:29:38;16.60;99.90
35645;DHT22;21764;52.042;6.830;2023-07-22T22:34:38;16.60;99.90
35645;DHT22;21764;52.042;6.830;2023-07-22T22:39:39;16.60;99.90
35645;DHT22;21764;52.042;6.830;2023-07-22T22:44:40;16.50;99.90
35645;DHT22;21764;52.042;6.830;2023-07-22T22:49:41;16.50;99.90
35645;DHT22;21764;52.042;6.830;2023-07-22T22:54:41;16.50;99.90
35645;DHT22;21764;52.042;6.830;2023-07-22T22:59:42;16.60;99.90
35645;DHT22;21764;52.042;6.830;2023-07-22T23:04:43;16.60;99.90
35645;DHT22;21764;52.042;6.830;2023-07-22T23:09:43;16.60;99.90
35645;DHT22;21764;52.042;6.830;2023-07-22T23:14:44;16.60;99.90
35645;DHT22;21764;52.042;6.830;2023-07-22T23:19:49;16.60;99.90
35645;DHT22;21764;52.042;6.830;2023-07-22T23:24:50;16.70;99.90
35645;DHT22;21764;52.042;6.830;2023-07-22T23:29:51;16.60;99.90
35645;DHT22;21764;52.042;6.830;2023-07-22T23:34:51;16.70;99.90
35645;DHT22;21764;52.042;6.830;2023-07-22T23:39:53;16.70;99.90
35645;DHT22;21764;52.042;6.830;2023-07-22T23:44:54;16.70;99.90
35645;DHT22;21764;52.042;6.830;2023-07-22T23:49:54;16.70;99.90
35645;DHT22;21764;52.042;6.830;2023-07-22T23:54:55;16.60;99.90
35645;DHT22;21764;52.042;6.830;2023-07-22T23:59:56;16.50;99.90
